ダカール の空港の天気 - METARとTAF

レオポール・セダール・サンゴール国際空港 ( GOOY / DKR ) - セネガル ダカール
飛行場実況気象(Metar)
観測時間10/20 17:00 GMT (10/20 17:00 UTC)
風向・風速北西 6m/s
視程10km以上
天気現象
なし
気温30℃
湿度70%
気圧1010hPa
METARGOOY 201700Z 32012KT CAVOK 30/24 Q1010
過去の天気等 Google飛行場航空写真 Wunderground天気予報

過去48時間のMETAR

飛行場予報(TAF)
発表時間: 10/20 17:30 GMT (10/20 17:30 UTC)
予報対象時間: 20日18時 GMT ~ 22日0時 GMT
風向・風速北 5m/s
視程10km以上
なし
TAF GOOY 201730Z 2018/2124 35010KT CAVOK